createdAt,value
2022-07-29T00:02:25.832Z,76956.28
2022-07-29T00:04:52.489Z,76976.16
2022-07-29T00:07:19.326Z,76980.13
2022-07-29T00:09:52.095Z,76980.13
2022-07-29T00:12:26.223Z,76986.09
2022-07-29T00:14:55.441Z,76986.09
2022-07-29T00:17:22.090Z,76984.13
2022-07-29T00:19:48.597Z,76996.03
2022-07-29T00:22:15.225Z,76992.06
2022-07-29T00:24:42.240Z,76992.06
2022-07-29T00:27:08.816Z,76988.09
2022-07-29T00:29:35.641Z,77004.00
2022-07-29T00:32:03.385Z,77004.00
2022-07-29T00:34:48.639Z,77007.97
2022-07-29T00:37:15.138Z,77011.94
2022-07-29T00:39:42.443Z,77017.91
2022-07-29T00:42:09.212Z,77013.94
2022-07-29T00:44:39.982Z,77017.91
2022-07-29T00:47:07.123Z,77015.91
2022-07-29T00:49:35.013Z,77011.94
2022-07-29T00:52:06.015Z,77019.88
2022-07-29T00:54:34.099Z,77019.88
2022-07-29T00:57:01.043Z,77009.94
2022-07-29T00:59:35.224Z,76994.06
2022-07-29T01:02:03.466Z,76988.09
2022-07-29T01:04:30.876Z,76986.09
2022-07-29T01:06:59.736Z,76998.03
2022-07-29T01:09:43.158Z,76996.03
2022-07-29T01:12:34.480Z,76992.06
2022-07-29T01:15:03.173Z,77009.94
2022-07-29T01:18:00.135Z,77004.00
2022-07-29T01:20:47.863Z,77025.84
2022-07-29T01:23:23.644Z,77027.84
2022-07-29T01:25:53.109Z,77047.72
2022-07-29T01:28:45.825Z,77009.94
2022-07-29T01:31:24.950Z,77002.00
2022-07-29T01:33:59.754Z,77007.97
2022-07-29T01:36:49.720Z,77007.97
2022-07-29T01:39:33.889Z,77007.97
2022-07-29T01:42:14.245Z,76992.06
2022-07-29T01:44:51.892Z,77005.97
2022-07-29T01:47:23.444Z,77015.91
2022-07-29T01:49:53.877Z,77007.97
2022-07-29T01:52:26.049Z,77005.97
2022-07-29T01:55:01.699Z,76996.03
2022-07-29T01:57:31.841Z,76994.06
2022-07-29T02:00:01.255Z,76988.09
2022-07-29T02:02:31.141Z,77004.00
2022-07-29T02:04:59.385Z,76992.06
2022-07-29T02:07:30.368Z,76996.03
2022-07-29T02:09:59.010Z,76996.03
2022-07-29T02:12:29.453Z,77007.97
2022-07-29T02:14:58.693Z,76998.03
2022-07-29T02:17:30.176Z,77015.91
2022-07-29T02:20:00.213Z,77015.91
2022-07-29T02:22:30.521Z,77007.97
2022-07-29T02:24:59.264Z,77015.91
2022-07-29T02:27:29.488Z,77029.81
2022-07-29T02:29:59.567Z,77031.81
2022-07-29T02:32:28.317Z,77041.75
2022-07-29T02:34:56.668Z,77035.78
2022-07-29T02:37:25.353Z,77047.72
2022-07-29T02:39:54.794Z,77051.69
2022-07-29T02:42:23.709Z,77063.63
2022-07-29T02:44:51.171Z,77063.63
2022-07-29T02:47:20.283Z,77077.53
2022-07-29T02:49:53.688Z,77071.56
2022-07-29T02:52:28.508Z,77073.56
2022-07-29T02:54:59.597Z,77081.50
2022-07-29T02:57:53.848Z,77077.53
2022-07-29T03:00:24.649Z,77083.50
2022-07-29T03:02:55.641Z,77091.44
2022-07-29T03:05:23.554Z,77083.50
2022-07-29T03:08:05.451Z,77083.50
2022-07-29T03:10:32.732Z,77085.47
2022-07-29T03:13:00.456Z,77079.50
2022-07-29T03:15:27.960Z,77077.53
2022-07-29T03:17:55.060Z,77071.56
2022-07-29T03:20:22.084Z,77055.66
2022-07-29T03:22:48.758Z,77063.63
2022-07-29T03:25:17.108Z,77063.63
2022-07-29T03:27:46.388Z,77057.66
2022-07-29T03:30:18.389Z,77057.66
2022-07-29T03:32:49.941Z,77045.72
2022-07-29T03:35:20.264Z,77043.75
2022-07-29T03:37:47.033Z,77043.75
2022-07-29T03:40:20.868Z,77051.69
2022-07-29T03:42:49.472Z,77031.81
2022-07-29T03:45:19.663Z,77027.84
2022-07-29T03:47:50.822Z,77023.88
2022-07-29T03:50:20.468Z,77009.94
2022-07-29T03:52:47.704Z,77007.97
2022-07-29T03:55:15.059Z,76996.03
2022-07-29T03:57:42.576Z,76990.06
2022-07-29T04:00:09.946Z,76988.09
2022-07-29T04:02:37.724Z,76976.16
2022-07-29T04:05:04.588Z,76972.19
2022-07-29T04:07:31.180Z,76964.25
2022-07-29T04:09:57.726Z,76966.22
2022-07-29T04:12:24.267Z,76956.28
2022-07-29T04:14:51.229Z,76948.34
2022-07-29T04:17:17.942Z,76950.31
2022-07-29T04:19:44.405Z,76956.28
2022-07-29T04:22:10.913Z,76948.34
2022-07-29T04:24:37.398Z,76936.41
2022-07-29T04:27:03.946Z,76934.44
2022-07-29T04:29:30.489Z,76924.50
2022-07-29T04:31:57.004Z,76932.44
2022-07-29T04:34:23.600Z,76914.56
2022-07-29T04:36:54.846Z,76896.66
2022-07-29T04:39:23.211Z,76894.69
2022-07-29T04:41:51.222Z,76892.69
2022-07-29T04:44:19.773Z,76904.63
2022-07-29T04:46:46.718Z,76906.59
2022-07-29T04:49:14.206Z,76886.72
2022-07-29T04:51:41.042Z,76876.78
2022-07-29T04:54:07.558Z,76878.78
2022-07-29T04:56:34.101Z,76874.81
2022-07-29T04:59:00.615Z,76870.84
2022-07-29T05:01:27.273Z,76880.78
2022-07-29T05:03:58.338Z,76880.78
2022-07-29T05:06:26.935Z,76872.81
2022-07-29T05:08:53.533Z,76880.78
2022-07-29T05:11:22.370Z,76854.94
2022-07-29T05:13:50.607Z,76847.00
2022-07-29T05:16:17.144Z,76835.06
2022-07-29T05:18:43.746Z,76831.09
2022-07-29T05:21:10.412Z,76825.13
2022-07-29T05:23:36.931Z,76841.03
2022-07-29T05:26:03.576Z,76831.09
2022-07-29T05:28:30.131Z,76819.16
2022-07-29T05:30:57.319Z,76821.16
2022-07-29T05:33:35.670Z,76807.25
2022-07-29T05:36:06.460Z,76821.16
2022-07-29T05:38:33.330Z,76833.06
2022-07-29T05:41:00.627Z,76825.13
2022-07-29T05:43:28.844Z,76815.19
2022-07-29T05:45:55.651Z,76811.22
2022-07-29T05:48:22.263Z,76805.25
2022-07-29T05:50:48.774Z,76769.47
2022-07-29T05:53:18.841Z,76763.53
2022-07-29T05:55:46.848Z,76743.66
2022-07-29T05:58:13.479Z,76731.72
2022-07-29T06:00:39.953Z,76713.84
2022-07-29T06:03:06.514Z,76695.94
2022-07-29T06:05:33.067Z,76699.94
2022-07-29T06:07:59.593Z,76703.91
2022-07-29T06:10:26.214Z,76674.09
2022-07-29T06:12:54.010Z,76699.94
2022-07-29T06:15:20.666Z,76697.94
2022-07-29T06:18:00.292Z,76693.97
2022-07-29T06:20:32.440Z,76688.00
2022-07-29T06:23:00.212Z,76678.06
2022-07-29T06:25:30.227Z,76670.13
2022-07-29T06:27:57.518Z,76646.28
2022-07-29T06:30:24.156Z,76642.28
2022-07-29T06:32:50.827Z,76620.44
2022-07-29T06:35:38.249Z,76598.56
2022-07-29T06:38:08.414Z,76582.69
2022-07-29T06:41:07.162Z,76546.91
2022-07-29T06:43:52.572Z,76519.09
2022-07-29T06:46:22.349Z,76521.09
2022-07-29T06:48:49.810Z,76495.25
2022-07-29T06:51:22.918Z,76497.22
2022-07-29T06:53:58.383Z,76459.47
2022-07-29T06:56:29.801Z,76465.44
2022-07-29T06:58:56.327Z,76455.50
2022-07-29T07:01:22.891Z,76431.66
2022-07-29T07:03:49.565Z,76419.72
2022-07-29T07:06:16.199Z,76407.81
2022-07-29T07:08:42.806Z,76401.84
2022-07-29T07:11:09.803Z,76387.94
2022-07-29T07:13:36.798Z,76387.94
2022-07-29T07:16:03.985Z,76380.00
2022-07-29T07:18:30.572Z,76374.03
2022-07-29T07:20:59.307Z,76376.03
2022-07-29T07:23:25.969Z,76378.00
2022-07-29T07:25:52.628Z,76368.06
2022-07-29T07:28:19.599Z,76358.13
2022-07-29T07:30:51.761Z,76348.19
2022-07-29T07:33:18.356Z,76346.22
2022-07-29T07:35:45.284Z,76334.28
2022-07-29T07:38:11.885Z,76310.44
2022-07-29T07:40:38.448Z,76284.63
2022-07-29T07:43:05.089Z,76262.75
2022-07-29T07:45:33.958Z,76252.81
2022-07-29T07:48:01.028Z,76225.00
2022-07-29T07:50:27.720Z,76211.09
2022-07-29T07:52:58.530Z,76175.34
2022-07-29T07:55:25.719Z,76165.41
2022-07-29T07:57:52.218Z,76131.63
2022-07-29T08:00:18.747Z,76111.75
2022-07-29T08:02:46.155Z,76081.94
2022-07-29T08:05:17.589Z,76074.00
2022-07-29T08:07:46.416Z,76050.16
2022-07-29T08:10:14.251Z,76050.16
2022-07-29T08:12:42.599Z,76058.09
2022-07-29T08:15:09.800Z,76038.22
2022-07-29T08:17:36.311Z,76026.31
2022-07-29T08:20:04.223Z,76014.41
2022-07-29T08:22:30.709Z,75986.56
2022-07-29T08:24:57.441Z,75972.66
2022-07-29T08:27:43.055Z,75998.50
2022-07-29T08:30:11.316Z,76010.41
2022-07-29T08:32:53.019Z,75990.56
2022-07-29T08:35:21.647Z,75998.50
2022-07-29T08:37:49.068Z,75994.53
2022-07-29T08:40:15.708Z,75974.66
2022-07-29T08:42:42.814Z,75952.81
2022-07-29T08:45:09.851Z,75944.84
2022-07-29T08:47:40.782Z,75932.94
2022-07-29T08:50:11.471Z,75911.06
2022-07-29T08:52:40.910Z,75883.25
2022-07-29T08:55:09.148Z,75839.56
2022-07-29T08:57:35.955Z,75811.75
2022-07-29T09:00:11.903Z,75779.94
2022-07-29T09:02:46.639Z,75775.97
2022-07-29T09:05:13.726Z,75768.03
2022-07-29T09:07:40.935Z,75768.03
2022-07-29T09:10:07.974Z,75760.09
2022-07-29T09:12:37.980Z,75746.19
2022-07-29T09:15:05.140Z,75754.13
2022-07-29T09:17:48.663Z,75732.28
2022-07-29T09:20:20.739Z,75752.13
2022-07-29T09:22:50.687Z,75744.19
2022-07-29T09:25:34.056Z,75781.94
2022-07-29T09:28:11.648Z,75777.97
2022-07-29T09:30:57.723Z,75797.84
2022-07-29T09:33:25.326Z,75772.00
2022-07-29T09:36:10.848Z,75770.03
2022-07-29T09:38:38.345Z,75740.22
2022-07-29T09:41:06.891Z,75722.34
2022-07-29T09:43:34.695Z,75704.47
2022-07-29T09:46:12.971Z,75678.63
2022-07-29T09:48:39.787Z,75656.78
2022-07-29T09:51:07.481Z,75656.78
2022-07-29T09:53:36.383Z,75625.00
2022-07-29T09:56:04.055Z,75619.03
2022-07-29T09:58:30.737Z,75579.31
2022-07-29T10:00:58.722Z,75551.50
2022-07-29T10:03:25.487Z,75555.47
2022-07-29T10:06:09.748Z,75519.69
2022-07-29T10:08:36.778Z,75513.75
2022-07-29T10:11:20.082Z,75493.88
2022-07-29T10:13:48.930Z,75493.88
2022-07-29T10:16:17.090Z,75466.06
2022-07-29T10:18:44.907Z,75466.06
2022-07-29T10:21:22.601Z,75454.16
2022-07-29T10:24:02.132Z,75454.16
2022-07-29T10:26:30.601Z,75438.25
2022-07-29T10:28:57.231Z,75430.31
2022-07-29T10:31:40.015Z,75400.50
2022-07-29T10:34:24.043Z,75402.50
2022-07-29T10:37:23.825Z,75388.59
2022-07-29T10:40:43.844Z,75396.53
2022-07-29T10:43:39.161Z,75390.56
2022-07-29T10:46:12.649Z,75410.44
2022-07-29T10:49:15.407Z,75428.31
2022-07-29T10:51:51.447Z,75432.28
2022-07-29T10:54:47.981Z,75448.19
2022-07-29T10:57:53.653Z,75394.56
2022-07-29T11:00:16.990Z,75372.69
2022-07-29T11:02:45.796Z,75362.75
2022-07-29T11:05:20.786Z,75358.78
2022-07-29T11:08:19.993Z,75374.69
2022-07-29T11:10:49.282Z,75390.56
2022-07-29T11:14:11.560Z,75380.66
2022-07-29T11:17:20.457Z,75358.78
2022-07-29T11:19:52.283Z,75356.81
2022-07-29T11:23:00.477Z,75368.72
2022-07-29T11:25:42.946Z,75374.69
2022-07-29T11:28:22.773Z,75350.84
2022-07-29T11:30:54.356Z,75344.88
2022-07-29T11:33:54.501Z,75325.03
2022-07-29T11:36:18.347Z,75344.88
2022-07-29T11:38:44.880Z,75344.88
2022-07-29T11:41:30.224Z,75336.94
2022-07-29T11:44:18.360Z,75332.97
2022-07-29T11:46:48.485Z,75354.81
2022-07-29T11:52:10.980Z,75362.75
2022-07-29T11:54:58.203Z,75404.47
2022-07-29T11:57:36.655Z,75414.41
2022-07-29T12:00:12.469Z,75398.53
2022-07-29T12:02:43.392Z,75394.56
2022-07-29T12:05:24.051Z,75340.91
2022-07-29T12:07:03.188Z,75380.66
2022-07-29T12:08:14.914Z,75285.28
2022-07-29T12:10:43.564Z,75225.69
2022-07-29T12:13:14.719Z,75235.63
2022-07-29T12:15:47.384Z,75219.75
2022-07-29T12:19:07.876Z,75164.13
2022-07-29T12:21:56.657Z,75106.53
2022-07-29T12:24:26.951Z,75090.63
2022-07-29T12:27:01.023Z,75094.59
2022-07-29T12:29:34.577Z,75110.50
2022-07-29T12:32:04.472Z,75128.38
2022-07-29T12:34:32.041Z,75124.41
2022-07-29T12:36:58.823Z,75126.38
2022-07-29T12:39:34.676Z,75116.44
2022-07-29T12:42:04.380Z,75102.53
2022-07-29T12:44:56.646Z,75076.72
2022-07-29T12:47:23.710Z,75056.88
2022-07-29T12:49:51.631Z,75056.88
2022-07-29T12:52:37.291Z,75112.47
2022-07-29T12:55:04.661Z,75144.25
2022-07-29T12:57:32.657Z,75142.28
2022-07-29T13:00:12.325Z,75154.19
2022-07-29T13:02:40.950Z,75114.47
2022-07-29T13:05:09.381Z,75072.75
2022-07-29T13:07:54.062Z,75040.97
2022-07-29T13:10:24.418Z,75029.06
2022-07-29T13:13:05.928Z,74999.25
2022-07-29T13:15:34.101Z,74969.47
2022-07-29T13:18:01.102Z,75007.22
2022-07-29T13:20:38.420Z,75027.06
2022-07-29T13:23:04.938Z,75068.78
2022-07-29T13:25:33.003Z,75064.81
2022-07-29T13:28:00.589Z,75092.63
2022-07-29T13:30:27.210Z,75092.63
2022-07-29T13:32:54.312Z,75064.81
2022-07-29T13:35:21.276Z,75048.91
2022-07-29T13:37:47.949Z,75076.72
2022-07-29T13:40:15.105Z,75074.75
2022-07-29T13:43:01.657Z,75037.00
2022-07-29T13:45:29.074Z,75011.19
2022-07-29T13:47:56.081Z,74969.47
2022-07-29T13:50:22.632Z,74935.69
2022-07-29T13:52:49.604Z,74933.72
2022-07-29T13:55:16.115Z,74949.59
2022-07-29T13:57:42.693Z,74979.41
2022-07-29T14:00:13.298Z,74999.25
2022-07-29T14:02:39.976Z,74993.31
2022-07-29T14:05:08.647Z,74971.44
2022-07-29T14:07:37.884Z,74999.25
2022-07-29T14:10:09.454Z,74969.47
2022-07-29T14:12:36.143Z,74987.34
2022-07-29T14:15:02.742Z,74973.44
2022-07-29T14:17:29.370Z,74985.34
2022-07-29T14:19:57.446Z,74997.28
2022-07-29T14:22:27.035Z,74985.34
2022-07-29T14:24:53.619Z,74945.63
2022-07-29T14:27:20.270Z,74933.72
2022-07-29T14:30:05.103Z,74973.44
2022-07-29T14:32:31.655Z,74965.50
2022-07-29T14:34:58.373Z,74945.63
2022-07-29T14:37:24.965Z,74957.56
2022-07-29T14:39:51.479Z,74927.75
2022-07-29T14:42:18.325Z,74927.75
2022-07-29T14:44:44.828Z,74921.78
2022-07-29T14:47:13.527Z,74955.56
2022-07-29T14:49:40.089Z,74963.50
2022-07-29T14:52:06.932Z,74890.00
2022-07-29T14:54:33.602Z,74635.78
2022-07-29T14:57:00.438Z,74474.94
2022-07-29T14:59:27.355Z,74453.09
2022-07-29T15:01:54.147Z,74214.78
2022-07-29T15:04:21.813Z,74111.50
2022-07-29T15:06:48.927Z,74153.22
2022-07-29T15:09:15.534Z,74381.59
2022-07-29T15:11:42.139Z,74542.44
2022-07-29T15:14:09.304Z,74699.34
2022-07-29T15:16:43.838Z,74743.03
2022-07-29T15:19:13.306Z,74500.75
2022-07-29T15:21:47.895Z,74327.97
2022-07-29T15:24:19.716Z,74290.25
2022-07-29T15:26:47.208Z,74204.84
2022-07-29T15:29:14.692Z,74165.13
2022-07-29T15:31:41.547Z,74238.59
2022-07-29T15:34:08.133Z,74300.16
2022-07-29T15:36:51.337Z,74341.88
2022-07-29T15:39:19.332Z,74554.38
2022-07-29T15:41:45.876Z,74635.78
2022-07-29T15:44:12.506Z,74717.22
2022-07-29T15:46:57.782Z,74725.16
2022-07-29T15:49:31.406Z,74677.50
2022-07-29T15:52:18.331Z,74643.75
2022-07-29T15:54:45.833Z,74568.28
2022-07-29T15:57:12.908Z,74594.09
2022-07-29T15:59:39.465Z,74643.75
2022-07-29T16:02:06.133Z,74739.06
2022-07-29T16:04:33.179Z,74830.44
2022-07-29T16:07:00.063Z,74858.25
2022-07-29T16:09:26.931Z,74901.94
2022-07-29T16:11:54.094Z,74888.03
2022-07-29T16:14:21.032Z,74880.09
2022-07-29T16:16:47.858Z,74915.84
2022-07-29T16:19:15.082Z,75015.16
2022-07-29T16:21:41.791Z,75068.78
2022-07-29T16:24:08.645Z,75100.56
2022-07-29T16:26:35.641Z,75136.31
2022-07-29T16:29:02.190Z,75162.13
2022-07-29T16:31:29.089Z,75172.06
2022-07-29T16:33:56.119Z,75176.03
2022-07-29T16:36:23.368Z,75160.16
2022-07-29T16:38:50.143Z,75166.09
2022-07-29T16:41:17.056Z,75176.03
2022-07-29T16:43:49.789Z,75211.78
2022-07-29T16:46:18.785Z,75223.72
2022-07-29T16:48:45.792Z,75199.88
2022-07-29T16:51:14.315Z,75235.63
2022-07-29T16:53:41.535Z,75249.53
2022-07-29T16:56:11.192Z,75243.59
2022-07-29T16:58:43.628Z,75255.50
2022-07-29T17:01:16.139Z,75273.38
2022-07-29T17:04:01.930Z,75281.31
2022-07-29T17:06:29.413Z,75281.31
2022-07-29T17:08:57.055Z,75279.34
2022-07-29T17:11:51.660Z,75285.28
2022-07-29T17:14:10.613Z,75291.25
2022-07-29T17:16:37.408Z,75283.31
2022-07-29T17:19:04.897Z,75263.44
2022-07-29T17:21:31.719Z,75267.41
2022-07-29T17:23:59.396Z,75261.47
2022-07-29T17:26:28.287Z,75305.16
2022-07-29T17:28:56.049Z,75332.97
2022-07-29T17:31:23.559Z,75362.75
2022-07-29T17:33:50.228Z,75362.75
2022-07-29T17:36:26.884Z,75370.72
2022-07-29T17:38:56.157Z,75372.69
2022-07-29T17:41:23.818Z,75380.66
2022-07-29T17:43:51.515Z,75400.50
2022-07-29T17:46:20.160Z,75414.41
2022-07-29T17:48:46.994Z,75432.28
2022-07-29T17:51:19.370Z,75440.25
2022-07-29T17:53:45.964Z,75438.25
2022-07-29T17:56:12.851Z,75452.16
2022-07-29T17:58:39.933Z,75472.03
2022-07-29T18:01:06.722Z,75491.88
2022-07-29T18:03:33.332Z,75487.91
2022-07-29T18:06:00.681Z,75513.75
2022-07-29T18:08:27.853Z,75517.72
2022-07-29T18:11:01.192Z,75517.72
2022-07-29T18:13:27.799Z,75525.66
2022-07-29T18:15:59.992Z,75535.59
2022-07-29T18:18:27.019Z,75551.50
2022-07-29T18:20:53.697Z,75557.44
2022-07-29T18:23:20.173Z,75573.34
2022-07-29T18:25:46.715Z,75585.25
2022-07-29T18:28:13.655Z,75605.13
2022-07-29T18:30:40.248Z,75623.00
2022-07-29T18:33:21.782Z,75632.94
2022-07-29T18:35:51.732Z,75632.94
2022-07-29T18:38:18.860Z,75630.94
2022-07-29T18:40:46.253Z,75628.97
2022-07-29T18:43:13.559Z,75652.81
2022-07-29T18:45:42.556Z,75674.66
2022-07-29T18:48:12.831Z,75678.63
2022-07-29T18:50:40.495Z,75686.56
2022-07-29T18:53:07.319Z,75692.53
2022-07-29T18:55:33.904Z,75694.53
2022-07-29T18:58:00.659Z,75698.50
2022-07-29T19:00:28.039Z,75708.44
2022-07-29T19:02:55.585Z,75712.41
2022-07-29T19:05:23.311Z,75714.41
2022-07-29T19:07:50.316Z,75730.28
2022-07-29T19:10:18.590Z,75736.25
2022-07-29T19:12:45.421Z,75754.13
2022-07-29T19:15:12.157Z,75760.09
2022-07-29T19:17:46.968Z,75772.00
2022-07-29T19:20:14.290Z,75779.94
2022-07-29T19:22:40.952Z,75791.88
2022-07-29T19:25:08.069Z,75781.94
2022-07-29T19:27:34.607Z,75793.84
2022-07-29T19:30:03.345Z,75805.78
2022-07-29T19:32:29.934Z,75821.69
2022-07-29T19:35:14.865Z,75827.63
2022-07-29T19:37:41.327Z,75843.53
2022-07-29T19:40:21.720Z,75847.50
2022-07-29T19:42:51.099Z,75851.47
2022-07-29T19:45:38.844Z,75861.41
2022-07-29T19:48:05.894Z,75861.41
2022-07-29T19:50:43.571Z,75865.38
2022-07-29T19:53:10.809Z,75875.31
2022-07-29T19:55:40.326Z,75877.31
2022-07-29T19:58:07.389Z,75877.31
2022-07-29T20:00:35.252Z,75881.28
2022-07-29T20:03:15.925Z,75887.22
2022-07-29T20:05:43.385Z,75893.19
2022-07-29T20:08:14.716Z,75891.22
2022-07-29T20:10:41.306Z,75891.22
2022-07-29T20:13:07.860Z,75903.13
2022-07-29T20:15:34.742Z,75919.03
2022-07-29T20:18:01.337Z,75930.94
2022-07-29T20:20:36.739Z,75923.00
2022-07-29T20:23:17.423Z,75934.91
2022-07-29T20:25:46.066Z,75934.91
2022-07-29T20:28:37.885Z,75962.75
2022-07-29T20:31:04.561Z,75958.75
2022-07-29T20:36:26.724Z,75974.66
2022-07-29T20:38:53.394Z,75980.63
2022-07-29T20:41:29.224Z,76000.47
2022-07-29T20:43:56.186Z,76010.41
2022-07-29T20:46:22.829Z,76014.41
2022-07-29T20:49:11.366Z,76022.34
2022-07-29T20:51:43.617Z,76022.34
2022-07-29T20:54:10.907Z,76038.22
2022-07-29T20:56:37.538Z,76038.22
2022-07-29T20:59:04.438Z,76026.31
2022-07-29T21:01:42.606Z,76018.38
2022-07-29T21:04:11.280Z,76014.41
2022-07-29T21:06:37.821Z,76028.31
2022-07-29T21:09:04.451Z,76046.19
2022-07-29T21:11:43.431Z,76058.09
2022-07-29T21:14:29.575Z,76074.00
2022-07-29T21:16:56.940Z,76068.03
2022-07-29T21:19:23.585Z,76068.03
2022-07-29T21:21:51.197Z,76070.03
2022-07-29T21:24:18.827Z,76089.91
2022-07-29T21:26:54.461Z,76101.81
2022-07-29T21:29:30.119Z,76115.72
2022-07-29T21:32:02.023Z,76121.69
2022-07-29T21:34:28.866Z,76127.66
2022-07-29T21:37:16.026Z,76137.59
2022-07-29T21:39:42.584Z,76137.59
2022-07-29T21:42:09.114Z,76133.59
2022-07-29T21:44:52.969Z,76137.59
2022-07-29T21:47:23.342Z,76143.53
2022-07-29T21:49:53.570Z,76153.47
2022-07-29T21:55:12.488Z,76177.31
2022-07-29T21:57:39.016Z,76191.22
2022-07-29T22:03:21.546Z,76193.22
2022-07-29T22:05:54.386Z,76213.09
2022-07-29T22:08:39.758Z,76211.09
2022-07-29T22:14:02.741Z,76197.19
2022-07-29T22:19:27.585Z,76185.25
2022-07-29T22:21:55.673Z,76191.22
2022-07-29T22:24:22.252Z,76191.22
2022-07-29T22:26:48.860Z,76197.19
2022-07-29T22:29:17.688Z,76201.16
2022-07-29T22:31:44.988Z,76205.13
2022-07-29T22:34:13.410Z,76215.06
2022-07-29T22:36:45.172Z,76227.00
2022-07-29T22:39:11.876Z,76234.94
2022-07-29T22:41:42.219Z,76232.94
2022-07-29T22:44:08.815Z,76234.94
2022-07-29T22:46:35.576Z,76232.94
2022-07-29T22:49:02.191Z,76234.94
2022-07-29T22:54:17.550Z,76234.94
2022-07-29T22:56:44.140Z,76236.94
2022-07-29T22:59:10.814Z,76228.97
2022-07-29T23:01:38.177Z,76244.88
2022-07-29T23:04:05.691Z,76248.84
2022-07-29T23:06:33.423Z,76248.84
2022-07-29T23:09:09.105Z,76252.81
2022-07-29T23:11:36.028Z,76256.78
2022-07-29T23:14:02.723Z,76262.75
2022-07-29T23:16:29.410Z,76256.78
2022-07-29T23:18:56.026Z,76262.75
2022-07-29T23:21:27.993Z,76262.75
2022-07-29T23:23:56.139Z,76260.78
2022-07-29T23:26:22.758Z,76252.81
2022-07-29T23:28:55.362Z,76262.75
2022-07-29T23:31:29.344Z,76260.78
2022-07-29T23:34:01.829Z,76274.69
2022-07-29T23:36:37.508Z,76272.69
2022-07-29T23:39:04.292Z,76264.75
2022-07-29T23:41:31.670Z,76256.78
2022-07-29T23:44:01.037Z,76264.75
2022-07-29T23:46:27.755Z,76258.78
2022-07-29T23:48:54.785Z,76256.78
2022-07-29T23:51:27.079Z,76260.78
2022-07-29T23:53:54.417Z,76254.81
2022-07-29T23:56:31.529Z,76260.78
